createdAt,value
2018-07-05T00:01:49.724Z,100660.75
2018-07-05T00:04:30.516Z,100665.20
2018-07-05T00:07:10.052Z,100660.78
2018-07-05T00:09:49.783Z,100670.89
2018-07-05T00:12:29.462Z,100676.89
2018-07-05T00:15:09.196Z,100686.15
2018-07-05T00:17:49.028Z,100678.84
2018-07-05T00:20:28.872Z,100674.91
2018-07-05T00:23:08.706Z,100678.48
2018-07-05T00:25:48.715Z,100677.35
2018-07-05T00:28:28.345Z,100680.53
2018-07-05T00:31:08.022Z,100674.75
2018-07-05T00:33:47.616Z,100670.14
2018-07-05T00:36:27.462Z,100672.82
2018-07-05T00:39:07.345Z,100672.92
2018-07-05T00:41:47.269Z,100668.39
2018-07-05T00:44:27.086Z,100672.97
2018-07-05T00:47:06.836Z,100676.05
2018-07-05T00:49:46.553Z,100668.79
2018-07-05T00:52:26.361Z,100668.33
2018-07-05T00:55:06.006Z,100672.87
2018-07-05T00:57:45.707Z,100676.55
2018-07-05T01:00:26.410Z,100671.05
2018-07-05T01:03:06.079Z,100669.06
2018-07-05T01:05:45.666Z,100671.27
2018-07-05T01:08:25.448Z,100669.81
2018-07-05T01:11:05.266Z,100666.52
2018-07-05T01:13:44.837Z,100666.47
2018-07-05T01:16:24.601Z,100669.73
2018-07-05T01:19:04.373Z,100673.08
2018-07-05T01:21:44.939Z,100668.59
2018-07-05T01:24:24.689Z,100673.38
2018-07-05T01:27:04.205Z,100675.02
2018-07-05T01:29:43.927Z,100670.19
2018-07-05T01:32:23.917Z,100681.78
2018-07-05T01:35:03.606Z,100685.18
2018-07-05T01:37:43.234Z,100688.33
2018-07-05T01:40:23.062Z,100686.05
2018-07-05T01:43:02.988Z,100682.73
2018-07-05T01:45:42.747Z,100685.72
2018-07-05T01:48:22.451Z,100690.77
2018-07-05T01:51:02.115Z,100690.47
2018-07-05T01:53:41.740Z,100687.72
2018-07-05T01:56:21.313Z,100687.62
2018-07-05T01:59:00.954Z,100687.45
2018-07-05T02:01:40.561Z,100693.48
2018-07-05T02:04:20.423Z,100692.70
2018-07-05T02:07:00.105Z,100693.02
2018-07-05T02:09:39.844Z,100699.62
2018-07-05T02:12:19.755Z,100700.86
2018-07-05T02:14:59.338Z,100703.11
2018-07-05T02:17:39.106Z,100702.80
2018-07-05T02:20:18.837Z,100697.19
2018-07-05T02:22:59.321Z,100699.95
2018-07-05T02:25:39.162Z,100700.78
2018-07-05T02:28:18.874Z,100704.61
2018-07-05T02:30:58.559Z,100700.72
2018-07-05T02:33:38.778Z,100705.94
2018-07-05T02:36:18.279Z,100702.21
2018-07-05T02:39:03.196Z,100700.17
2018-07-05T02:41:43.939Z,100695.67
2018-07-05T02:44:23.708Z,100693.45
2018-07-05T02:47:03.315Z,100697.38
2018-07-05T02:49:43.502Z,100692.66
2018-07-05T02:52:23.100Z,100705.94
2018-07-05T02:55:02.880Z,100708.45
2018-07-05T02:57:42.755Z,100710.52
2018-07-05T03:00:22.564Z,100703.47
2018-07-05T03:03:02.359Z,100699.60
2018-07-05T03:05:42.178Z,100701.42
2018-07-05T03:08:21.802Z,100695.83
2018-07-05T03:11:01.253Z,100701.80
2018-07-05T03:13:40.804Z,100705.97
2018-07-05T03:16:21.599Z,100703.30
2018-07-05T03:19:02.049Z,100697.98
2018-07-05T03:21:42.914Z,100698.89
2018-07-05T03:24:22.520Z,100705.95
2018-07-05T03:27:02.163Z,100697.87
2018-07-05T03:29:41.953Z,100706.61
2018-07-05T03:33:24.683Z,100705.83
2018-07-05T03:36:04.361Z,100709.93
2018-07-05T03:38:44.088Z,100704.08
2018-07-05T03:41:23.912Z,100698.08
2018-07-05T03:44:03.552Z,100697.34
2018-07-05T03:46:43.364Z,100698.66
2018-07-05T03:49:23.204Z,100704.61
2018-07-05T03:52:02.995Z,100698.30
2018-07-05T03:54:43.400Z,100697.41
2018-07-05T03:57:23.544Z,100699.50
2018-07-05T04:00:03.568Z,100704.72
2018-07-05T04:02:43.595Z,100705.04
2018-07-05T04:05:23.264Z,100697.30
2018-07-05T04:08:02.986Z,100698.15
2018-07-05T04:10:42.692Z,100699.58
2018-07-05T04:13:22.679Z,100707.87
2018-07-05T04:16:02.367Z,100702.52
2018-07-05T04:18:44.401Z,100700.35
2018-07-05T04:21:24.082Z,100707.52
2018-07-05T04:24:03.939Z,100701.87
2018-07-05T04:26:43.656Z,100703.41
2018-07-05T04:29:23.508Z,100704.53
2018-07-05T04:32:03.267Z,100706.43
2018-07-05T04:34:42.808Z,100705.86
2018-07-05T04:37:22.285Z,100709.38
2018-07-05T04:40:01.983Z,100713.45
2018-07-05T04:42:41.738Z,100722.44
2018-07-05T04:45:22.440Z,100724.27
2018-07-05T04:48:02.120Z,100725.58
2018-07-05T04:50:41.960Z,100731.56
2018-07-05T04:53:21.564Z,100732.02
2018-07-05T04:56:01.208Z,100732.61
2018-07-05T04:58:41.794Z,100728.38
2018-07-05T05:01:21.581Z,100730.69
2018-07-05T05:04:01.361Z,100737.70
2018-07-05T05:06:41.109Z,100742.13
2018-07-05T05:09:20.724Z,100735.33
2018-07-05T05:12:00.492Z,100740.74
2018-07-05T05:14:40.243Z,100737.77
2018-07-05T05:17:19.930Z,100731.97
2018-07-05T05:19:59.786Z,100734.80
2018-07-05T05:22:39.827Z,100736.34
2018-07-05T05:25:20.278Z,100747.23
2018-07-05T05:28:00.235Z,100744.86
2018-07-05T05:30:40.860Z,100747.83
2018-07-05T05:33:20.631Z,100754.59
2018-07-05T05:36:00.352Z,100755.29
2018-07-05T05:38:40.046Z,100749.23
2018-07-05T05:41:20.009Z,100743.05
2018-07-05T05:43:59.651Z,100740.88
2018-07-05T05:46:39.360Z,100731.67
2018-07-05T05:49:19.204Z,100727.98
2018-07-05T05:51:59.018Z,100725.19
2018-07-05T05:54:39.308Z,100726.80
2018-07-05T05:57:19.197Z,100727.05
2018-07-05T05:59:58.910Z,100729.80
2018-07-05T06:02:39.003Z,100731.94
2018-07-05T06:05:18.602Z,100731.89
2018-07-05T06:07:58.477Z,100729.20
2018-07-05T06:10:37.978Z,100727.44
2018-07-05T06:13:17.684Z,100726.71
2018-07-05T06:15:58.439Z,100722.06
2018-07-05T06:18:38.395Z,100721.62
2018-07-05T06:21:18.132Z,100719.58
2018-07-05T06:23:57.836Z,100720.17
2018-07-05T06:26:38.106Z,100720.38
2018-07-05T06:29:17.737Z,100719.31
2018-07-05T06:31:57.354Z,100719.12
2018-07-05T06:34:37.416Z,100720.22
2018-07-05T06:37:17.219Z,100720.22
2018-07-05T06:39:57.013Z,100717.89
2018-07-05T06:42:36.823Z,100722.33
2018-07-05T06:45:16.668Z,100728.97
2018-07-05T06:47:56.231Z,100726.08
2018-07-05T06:50:36.033Z,100726.64
2018-07-05T06:53:15.879Z,100733.97
2018-07-05T06:55:55.647Z,100733.32
2018-07-05T06:58:35.662Z,100736.38
2018-07-05T07:01:15.643Z,100737.09
2018-07-05T07:03:55.753Z,100731.97
2018-07-05T07:06:35.391Z,100728.85
2018-07-05T07:09:15.163Z,100726.64
2018-07-05T07:11:54.772Z,100730.38
2018-07-05T07:14:34.476Z,100733.27
2018-07-05T07:17:14.009Z,100734.63
2018-07-05T07:19:53.815Z,100733.29
2018-07-05T07:22:33.405Z,100734.69
2018-07-05T07:25:13.026Z,100738.95
2018-07-05T07:27:53.509Z,100738.13
2018-07-05T07:30:33.384Z,100730.03
2018-07-05T07:33:13.441Z,100740.59
2018-07-05T07:35:53.056Z,100733.98
2018-07-05T07:38:32.671Z,100731.81
2018-07-05T07:41:12.542Z,100729.52
2018-07-05T07:43:39.840Z,100721.66
2018-07-05T07:46:07.833Z,100717.72
2018-07-05T07:48:35.204Z,100720.73
2018-07-05T07:51:02.460Z,100730.97
2018-07-05T07:53:29.732Z,100726.13
2018-07-05T07:55:57.043Z,100724.26
2018-07-05T07:58:24.401Z,100726.88
2018-07-05T08:00:51.695Z,100724.27
2018-07-05T08:03:19.089Z,100721.50
2018-07-05T08:05:47.453Z,100722.88
2018-07-05T08:08:14.889Z,100724.52
2018-07-05T08:10:42.175Z,100733.82
2018-07-05T08:13:09.452Z,100722.03
2018-07-05T08:15:36.782Z,100724.27
2018-07-05T08:18:04.799Z,100722.03
2018-07-05T08:20:32.119Z,100720.98
2018-07-05T08:23:00.381Z,100723.75
2018-07-05T08:25:27.687Z,100712.41
2018-07-05T08:27:54.960Z,100718.58
2018-07-05T08:30:22.701Z,100716.34
2018-07-05T08:32:49.953Z,100718.23
2018-07-05T08:35:17.200Z,100714.00
2018-07-05T08:37:44.556Z,100722.11
2018-07-05T08:40:11.834Z,100718.34
2018-07-05T08:42:39.104Z,100712.76
2018-07-05T08:45:06.425Z,100712.41
2018-07-05T08:47:33.678Z,100713.62
2018-07-05T08:50:00.924Z,100706.58
2018-07-05T08:52:28.225Z,100700.02
2018-07-05T08:54:55.552Z,100700.52
2018-07-05T08:57:23.127Z,100696.97
2018-07-05T08:59:50.448Z,100692.30
2018-07-05T09:02:18.079Z,100689.98
2018-07-05T09:04:45.341Z,100682.75
2018-07-05T09:07:12.835Z,100691.03
2018-07-05T09:09:40.810Z,100688.94
2018-07-05T09:12:08.123Z,100683.06
2018-07-05T09:14:36.256Z,100680.72
2018-07-05T09:17:03.633Z,100678.55
2018-07-05T09:19:30.866Z,100673.56
2018-07-05T09:21:58.155Z,100680.33
2018-07-05T09:24:25.514Z,100683.02
2018-07-05T09:26:52.929Z,100678.38
2018-07-05T09:29:20.112Z,100678.13
2018-07-05T09:31:47.398Z,100682.16
2018-07-05T09:34:15.013Z,100671.56
2018-07-05T09:36:42.281Z,100668.36
2018-07-05T09:39:10.727Z,100665.20
2018-07-05T09:41:38.168Z,100672.82
2018-07-05T09:44:05.452Z,100674.66
2018-07-05T09:46:32.812Z,100674.57
2018-07-05T09:49:00.106Z,100678.13
2018-07-05T09:51:27.397Z,100661.14
2018-07-05T09:53:54.659Z,100665.16
2018-07-05T09:56:22.016Z,100662.02
2018-07-05T09:58:49.336Z,100665.47
2018-07-05T10:01:16.643Z,100661.73
2018-07-05T10:03:44.963Z,100655.03
2018-07-05T10:06:12.794Z,100667.44
2018-07-05T10:08:40.052Z,100664.14
2018-07-05T10:11:07.379Z,100657.53
2018-07-05T10:13:35.277Z,100653.25
2018-07-05T10:16:02.378Z,100650.33
2018-07-05T10:18:29.924Z,100643.70
2018-07-05T10:20:58.031Z,100648.59
2018-07-05T10:23:26.030Z,100642.86
2018-07-05T10:25:53.474Z,100637.16
2018-07-05T10:28:20.947Z,100632.22
2018-07-05T10:31:00.706Z,100646.63
2018-07-05T10:33:40.509Z,100642.83
2018-07-05T10:36:08.318Z,100634.34
2018-07-05T10:38:35.608Z,100634.46
2018-07-05T10:41:15.287Z,100633.25
2018-07-05T10:43:55.121Z,100631.77
2018-07-05T10:46:34.909Z,100630.92
2018-07-05T10:49:14.692Z,100630.85
2018-07-05T10:51:55.992Z,100618.00
2018-07-05T10:54:35.708Z,100622.80
2018-07-05T10:57:15.812Z,100631.13
2018-07-05T10:59:55.555Z,100628.11
2018-07-05T11:02:35.274Z,100621.84
2018-07-05T11:05:17.170Z,100620.36
2018-07-05T11:07:57.825Z,100621.55
2018-07-05T11:10:37.536Z,100617.09
2018-07-05T11:13:19.116Z,100620.08
2018-07-05T11:15:59.874Z,100624.59
2018-07-05T11:18:39.678Z,100613.91
2018-07-05T11:21:19.854Z,100616.00
2018-07-05T11:23:59.627Z,100619.81
2018-07-05T11:26:39.201Z,100614.16
2018-07-05T11:29:19.514Z,100605.60
2018-07-05T11:31:59.329Z,100617.02
2018-07-05T11:34:39.264Z,100617.27
2018-07-05T11:37:20.037Z,100613.77
2018-07-05T11:39:59.812Z,100604.96
2018-07-05T11:42:40.654Z,100618.01
2018-07-05T11:45:20.381Z,100624.84
2018-07-05T11:47:59.984Z,100616.22
2018-07-05T11:50:39.934Z,100615.90
2018-07-05T11:53:19.661Z,100613.06
2018-07-05T11:56:00.232Z,100614.01
2018-07-05T11:58:40.146Z,100619.91
2018-07-05T12:01:19.938Z,100613.33
2018-07-05T12:04:01.045Z,100618.00
2018-07-05T12:06:41.370Z,100614.52
2018-07-05T12:09:21.058Z,100612.25
2018-07-05T12:12:01.112Z,100609.77
2018-07-05T12:14:42.031Z,100610.44
2018-07-05T12:17:23.258Z,100595.80
2018-07-05T12:20:03.137Z,100599.81
2018-07-05T12:22:42.874Z,100601.92
2018-07-05T12:25:24.400Z,100594.00
2018-07-05T12:28:03.876Z,100598.20
2018-07-05T12:30:44.605Z,100599.80
2018-07-05T12:33:24.169Z,100588.12
2018-07-05T12:36:03.878Z,100586.08
2018-07-05T12:38:44.060Z,100591.83
2018-07-05T12:41:23.863Z,100586.90
2018-07-05T12:44:05.544Z,100572.58
2018-07-05T12:46:45.305Z,100573.90
2018-07-05T12:49:25.189Z,100583.78
2018-07-05T12:52:04.751Z,100584.65
2018-07-05T12:54:45.664Z,100581.48
2018-07-05T12:57:27.328Z,100583.17
2018-07-05T13:00:07.073Z,100587.66
2018-07-05T13:02:46.734Z,100579.47
2018-07-05T13:05:26.341Z,100582.91
2018-07-05T13:08:06.378Z,100581.73
2018-07-05T13:10:46.719Z,100580.54
2018-07-05T13:13:26.434Z,100582.77
2018-07-05T13:16:06.240Z,100585.39
2018-07-05T13:18:47.006Z,100576.09
2018-07-05T13:21:26.710Z,100582.23
2018-07-05T13:24:06.330Z,100577.45
2018-07-05T13:26:46.686Z,100575.98
2018-07-05T13:29:26.579Z,100577.19
2018-07-05T13:32:06.119Z,100579.72
2018-07-05T13:34:47.232Z,100575.83
2018-07-05T13:37:28.705Z,100573.02
2018-07-05T13:40:09.306Z,100582.13
2018-07-05T13:42:49.407Z,100586.05
2018-07-05T13:45:30.349Z,100580.97
2018-07-05T13:48:10.148Z,100581.96
2018-07-05T13:50:50.577Z,100577.73
2018-07-05T13:53:33.108Z,100580.55
2018-07-05T13:56:12.906Z,100577.31
2018-07-05T13:58:52.836Z,100585.73
2018-07-05T14:01:32.576Z,100580.92
2018-07-05T14:04:12.438Z,100581.60
2018-07-05T14:06:52.471Z,100572.45
2018-07-05T14:09:33.156Z,100578.11
2018-07-05T14:12:14.702Z,100561.64
2018-07-05T14:14:54.363Z,100578.03
2018-07-05T14:17:34.183Z,100571.96
2018-07-05T14:20:14.006Z,100566.45
2018-07-05T14:22:53.780Z,100571.64
2018-07-05T14:25:33.951Z,100577.10
2018-07-05T14:28:13.621Z,100583.81
2018-07-05T14:30:53.337Z,100580.62
2018-07-05T14:33:33.651Z,100580.23
2018-07-05T14:36:13.231Z,100580.83
2018-07-05T14:38:53.268Z,100579.12
2018-07-05T14:41:33.445Z,100585.00
2018-07-05T14:44:13.833Z,100576.26
2018-07-05T14:46:54.896Z,100577.62
2018-07-05T14:49:35.660Z,100576.83
2018-07-05T14:52:16.779Z,100565.60
2018-07-05T14:54:57.087Z,100562.09
2018-07-05T14:57:36.753Z,100566.73
2018-07-05T15:00:16.725Z,100573.36
2018-07-05T15:02:57.394Z,100578.05
2018-07-05T15:05:39.663Z,100576.30
2018-07-05T15:08:20.054Z,100577.85
2018-07-05T15:10:59.748Z,100584.24
2018-07-05T15:13:39.262Z,100588.46
2018-07-05T15:16:18.988Z,100586.80
2018-07-05T15:18:59.028Z,100591.05
2018-07-05T15:21:38.917Z,100588.34
2018-07-05T15:24:19.579Z,100584.73
2018-07-05T15:26:59.257Z,100592.70
2018-07-05T15:29:38.933Z,100596.45
2018-07-05T15:32:18.732Z,100586.13
2018-07-05T15:34:58.586Z,100590.06
2018-07-05T15:37:38.209Z,100587.65
2018-07-05T15:40:18.275Z,100597.48
2018-07-05T15:42:58.245Z,100598.56
2018-07-05T15:45:37.885Z,100587.61
2018-07-05T15:48:17.535Z,100586.53
2018-07-05T15:50:57.203Z,100590.83
2018-07-05T15:53:37.093Z,100587.13
2018-07-05T15:56:16.910Z,100586.58
2018-07-05T15:58:56.995Z,100585.32
2018-07-05T16:01:36.778Z,100584.52
2018-07-05T16:04:16.468Z,100587.13
2018-07-05T16:06:56.311Z,100593.05
2018-07-05T16:09:35.929Z,100599.59
2018-07-05T16:12:15.517Z,100595.52
2018-07-05T16:14:55.691Z,100595.77
2018-07-05T16:17:35.476Z,100592.44
2018-07-05T16:20:16.113Z,100595.48
2018-07-05T16:22:56.450Z,100596.58
2018-07-05T16:25:36.358Z,100597.38
2018-07-05T16:28:16.028Z,100586.83
2018-07-05T16:30:56.136Z,100596.56
2018-07-05T16:33:35.824Z,100591.33
2018-07-05T16:36:15.978Z,100587.38
2018-07-05T16:38:55.806Z,100596.63
2018-07-05T16:41:35.554Z,100589.89
2018-07-05T16:44:15.726Z,100588.59
2018-07-05T16:46:55.387Z,100591.11
2018-07-05T16:49:35.951Z,100588.23
2018-07-05T16:52:15.845Z,100591.11
2018-07-05T16:54:55.710Z,100592.43
2018-07-05T16:57:36.130Z,100589.42
2018-07-05T17:00:15.813Z,100597.09
2018-07-05T17:02:56.702Z,100601.98
2018-07-05T17:05:36.596Z,100603.75
2018-07-05T17:08:16.374Z,100606.25
2018-07-05T17:10:56.598Z,100607.54
2018-07-05T17:13:36.224Z,100609.48
2018-07-05T17:16:15.811Z,100618.88
2018-07-05T17:18:55.754Z,100621.17
2018-07-05T17:21:35.421Z,100624.52
2018-07-05T17:24:15.080Z,100618.02
2018-07-05T17:26:55.044Z,100621.97
2018-07-05T17:29:35.241Z,100621.89
2018-07-05T17:32:14.984Z,100632.66
2018-07-05T17:34:55.911Z,100636.90
2018-07-05T17:37:35.765Z,100646.95
2018-07-05T17:40:15.644Z,100642.52
2018-07-05T17:42:55.549Z,100663.09
2018-07-05T17:45:35.659Z,100644.47
2018-07-05T17:48:16.145Z,100652.79
2018-07-05T17:50:56.127Z,100657.45
2018-07-05T17:53:35.686Z,100667.81
2018-07-05T17:56:16.216Z,100666.64
2018-07-05T17:58:56.076Z,100669.75
2018-07-05T18:01:35.857Z,100673.06
2018-07-05T18:04:15.651Z,100674.89
2018-07-05T18:06:55.274Z,100677.21
2018-07-05T18:09:36.010Z,100688.45
2018-07-05T18:12:15.867Z,100692.17
2018-07-05T18:14:55.719Z,100702.13
2018-07-05T18:17:35.751Z,100702.92
2018-07-05T18:20:15.871Z,100701.72
2018-07-05T18:22:55.787Z,100710.45
2018-07-05T18:25:35.502Z,100711.20
2018-07-05T18:28:15.189Z,100712.78
2018-07-05T18:30:54.829Z,100708.47
2018-07-05T18:33:34.606Z,100715.41
2018-07-05T18:36:14.756Z,100733.56
2018-07-05T18:38:55.891Z,100729.01
2018-07-05T18:41:35.672Z,100724.55
2018-07-05T18:44:15.437Z,100737.31
2018-07-05T18:46:55.174Z,100737.08
2018-07-05T18:49:35.117Z,100741.21
2018-07-05T18:52:15.531Z,100743.27
2018-07-05T18:54:55.976Z,100753.30
2018-07-05T18:57:35.582Z,100759.77
2018-07-05T19:00:15.568Z,100769.91
2018-07-05T19:02:55.834Z,100766.53
2018-07-05T19:05:35.607Z,100767.04
2018-07-05T19:08:15.491Z,100766.41
2018-07-05T19:10:56.236Z,100774.56
2018-07-05T19:13:36.015Z,100767.82
2018-07-05T19:16:15.775Z,100775.41
2018-07-05T19:18:56.130Z,100790.27
2018-07-05T19:21:35.825Z,100782.90
2018-07-05T19:24:16.250Z,100788.92
2018-07-05T19:26:57.172Z,100804.45
2018-07-05T19:29:36.877Z,100801.47
2018-07-05T19:32:16.653Z,100805.64
2018-07-05T19:34:57.515Z,100804.61
2018-07-05T19:37:37.682Z,100817.28
2018-07-05T19:40:17.876Z,100809.91
2018-07-05T19:42:58.089Z,100810.15
2018-07-05T19:45:38.770Z,100815.00
2018-07-05T19:48:18.934Z,100821.29
2018-07-05T19:51:00.346Z,100824.13
2018-07-05T19:53:40.139Z,100831.69
2018-07-05T19:56:19.851Z,100836.97
2018-07-05T19:59:04.865Z,100832.03
2018-07-05T20:01:45.343Z,100843.68
2018-07-05T20:04:25.337Z,100844.48
2018-07-05T20:07:05.125Z,100848.57
2018-07-05T20:09:46.604Z,100859.11
2018-07-05T20:12:26.191Z,100855.73
2018-07-05T20:15:06.104Z,100858.34
2018-07-05T20:17:45.908Z,100861.61
2018-07-05T20:20:25.601Z,100860.75
2018-07-05T20:23:07.630Z,100857.98
2018-07-05T20:25:47.600Z,100860.45
2018-07-05T20:28:28.235Z,100860.11
2018-07-05T20:31:07.964Z,100866.72
2018-07-05T20:33:47.976Z,100869.09
2018-07-05T20:36:27.756Z,100865.52
2018-07-05T20:39:08.488Z,100872.22
2018-07-05T20:41:48.307Z,100876.70
2018-07-05T20:44:28.019Z,100871.15
2018-07-05T20:47:07.960Z,100877.14
2018-07-05T20:49:48.553Z,100875.98
2018-07-05T20:52:28.728Z,100879.83
2018-07-05T20:55:09.384Z,100877.35
2018-07-05T20:57:49.680Z,100874.59
2018-07-05T21:00:29.459Z,100875.69
2018-07-05T21:03:09.307Z,100889.88
2018-07-05T21:05:48.988Z,100898.59
2018-07-05T21:08:28.828Z,100888.27
2018-07-05T21:11:08.665Z,100900.92
2018-07-05T21:13:48.320Z,100904.02
2018-07-05T21:16:28.785Z,100900.38
2018-07-05T21:19:10.049Z,100912.78
2018-07-05T21:21:50.570Z,100915.69
2018-07-05T21:24:31.176Z,100922.22
2018-07-05T21:27:12.157Z,100920.27
2018-07-05T21:29:52.895Z,100915.77
2018-07-05T21:32:32.648Z,100922.88
2018-07-05T21:35:14.298Z,100936.58
2018-07-05T21:37:54.068Z,100929.59
2018-07-05T21:40:34.041Z,100936.05
2018-07-05T21:43:13.698Z,100940.20
2018-07-05T21:45:53.422Z,100946.71
2018-07-05T21:48:34.328Z,100947.16
2018-07-05T21:51:14.802Z,100951.53
2018-07-05T21:53:54.486Z,100943.70
2018-07-05T21:56:34.923Z,100944.94
2018-07-05T21:59:14.592Z,100950.25
2018-07-05T22:01:54.659Z,100950.63
2018-07-05T22:04:34.750Z,100945.39
2018-07-05T22:07:15.011Z,100951.68
2018-07-05T22:09:55.600Z,100951.92
2018-07-05T22:12:35.228Z,100952.42
2018-07-05T22:15:14.853Z,100956.21
2018-07-05T22:18:00.122Z,100952.39
2018-07-05T22:20:45.091Z,100957.33
2018-07-05T22:23:30.502Z,100957.78
2018-07-05T22:26:15.879Z,100961.75
2018-07-05T22:29:01.029Z,100973.27
2018-07-05T22:31:41.129Z,100975.32
2018-07-05T22:34:20.959Z,100981.12
2018-07-05T22:37:00.744Z,100980.60
2018-07-05T22:39:40.457Z,100987.52
2018-07-05T22:42:20.101Z,100989.42
2018-07-05T22:44:59.795Z,100989.66
2018-07-05T22:47:39.568Z,100997.65
2018-07-05T22:50:19.349Z,100997.17
2018-07-05T22:53:00.146Z,100997.79
2018-07-05T22:55:40.064Z,100994.13
2018-07-05T22:58:19.791Z,101002.45
2018-07-05T23:00:59.961Z,101005.36
2018-07-05T23:03:39.911Z,101009.05
2018-07-05T23:06:19.724Z,100994.76
2018-07-05T23:08:59.440Z,101002.39
2018-07-05T23:11:39.311Z,101010.50
2018-07-05T23:14:19.200Z,101009.56
2018-07-05T23:16:59.083Z,101018.03
2018-07-05T23:19:39.565Z,101017.30
2018-07-05T23:22:19.945Z,101023.30
2018-07-05T23:24:59.717Z,101024.16
2018-07-05T23:27:39.625Z,101024.01
2018-07-05T23:30:19.246Z,101027.41
2018-07-05T23:32:59.019Z,101024.36
2018-07-05T23:35:38.555Z,101021.26
2018-07-05T23:38:19.563Z,101014.83
2018-07-05T23:41:00.188Z,101017.20
2018-07-05T23:43:40.091Z,101023.01
2018-07-05T23:46:19.766Z,101025.45
2018-07-05T23:48:59.689Z,101020.66
2018-07-05T23:51:39.380Z,101025.33
2018-07-05T23:54:18.964Z,101017.67
2018-07-05T23:56:58.630Z,101025.87
2018-07-05T23:59:38.890Z,101025.48
